Time;durP1;ratioP1;P1;durP2;ratioP2;P2;SDS_P1;SDS_P2;PMS_P1;PMS_P2;Temp;Humidity;BMP_temperature;BMP_pressure;BME280_temperature;BME280_humidity;BME280_pressure;Samples;Min_cycle;Max_cycle;Signal;HPM_P1;HPM_P2
2021/09/15 00:00:57;;;;;;;;;;;;;;;23.95;100.00;98675.28;5109676;28;19915;-63
2021/09/15 00:03:23;;;;;;;;;;;;;;;23.73;100.00;98668.50;5088224;28;19994;-63
2021/09/15 00:05:48;;;;;;;;;;;;;;;23.31;100.00;98663.56;5105488;28;19965;-62
2021/09/15 00:08:13;;;;;;;;;;;;;;;23.35;100.00;98661.47;5102370;28;19912;-63
2021/09/15 00:10:40;;;;;;;;;;;;;;;23.21;100.00;98656.63;5101114;28;19920;-64
2021/09/15 00:13:05;;;;;;;;;;;;;;;23.31;100.00;98658.31;5095343;28;20353;-61
2021/09/15 00:15:31;;;;;;;;;;;;;;;23.13;100.00;98649.47;5095986;28;19966;-62
2021/09/15 00:17:56;;;;;;;;;;;;;;;22.85;100.00;98651.03;5094223;28;19966;-63
2021/09/15 00:20:21;;;;;;;;;;;;;;;22.74;100.00;98649.38;5097082;28;19920;-62
2021/09/15 00:22:47;;;;;;;;;;;;;;;22.85;100.00;98641.34;5095007;28;19920;-64
2021/09/15 00:25:12;;;;;;;;;;;;;;;23.05;100.00;98642.25;5094202;28;19951;-63
2021/09/15 00:27:37;;;;;;;;;;;;;;;23.10;100.00;98644.47;5074934;28;19919;-63
2021/09/15 00:30:03;;;;;;;;;;;;;;;23.11;100.00;98635.63;5098325;28;19919;-62
2021/09/15 00:32:28;;;;;;;;;;;;;;;22.94;100.00;98639.72;5110603;28;19916;-62
2021/09/15 00:34:53;;;;;;;;;;;;;;;23.49;100.00;98631.31;5101581;28;19912;-60
2021/09/15 00:37:18;;;;;;;;;;;;;;;22.96;100.00;98635.97;5105554;28;19922;-62
2021/09/15 00:39:44;;;;;;;;;;;;;;;22.83;100.00;98627.56;5098800;28;19919;-62
2021/09/15 00:42:10;;;;;;;;;;;;;;;23.33;100.00;98624.84;5076870;28;19943;-61
2021/09/15 00:44:35;;;;;;;;;;;;;;;23.25;100.00;98622.06;5094544;28;19927;-62
2021/09/15 00:47:00;;;;;;;;;;;;;;;23.00;100.00;98620.00;5080204;28;19996;-64
2021/09/15 00:49:26;;;;;;;;;;;;;;;22.92;100.00;98620.63;5098517;28;19955;-63
2021/09/15 00:51:52;;;;;;;;;;;;;;;22.88;100.00;98619.28;5084775;28;20303;-63
2021/09/15 00:54:17;;;;;;;;;;;;;;;23.07;100.00;98613.22;5106184;28;20052;-62
2021/09/15 00:56:42;;;;;;;;;;;;;;;23.20;100.00;98603.28;5100915;28;20394;-62
2021/09/15 00:59:08;;;;;;;;;;;;;;;23.23;100.00;98595.09;5105342;28;19927;-61
2021/09/15 01:01:33;;;;;;;;;;;;;;;23.16;100.00;98607.97;5105171;28;19919;-62
2021/09/15 01:03:59;;;;;;;;;;;;;;;23.26;100.00;98602.69;5079741;28;20942;-62
2021/09/15 01:06:24;;;;;;;;;;;;;;;22.90;100.00;98612.09;5102833;28;19924;-62
2021/09/15 01:08:49;;;;;;;;;;;;;;;22.97;100.00;98614.03;5080918;28;19926;-60
2021/09/15 01:11:15;;;;;;;;;;;;;;;22.97;100.00;98613.19;5100805;28;19957;-60
2021/09/15 01:13:41;;;;;;;;;;;;;;;23.21;100.00;98604.91;5103466;28;19916;-60
2021/09/15 01:16:07;;;;;;;;;;;;;;;22.83;100.00;98606.56;5101746;28;19916;-60
2021/09/15 01:18:33;;;;;;;;;;;;;;;23.07;100.00;98597.47;5083676;28;19919;-60
2021/09/15 01:20:58;;;;;;;;;;;;;;;22.77;100.00;98596.59;5083138;28;19920;-60
2021/09/15 01:23:24;;;;;;;;;;;;;;;23.06;100.00;98601.91;5083916;28;19951;-60
2021/09/15 01:25:52;;;;;;;;;;;;;;;23.13;100.00;98589.03;5083609;28;20424;-60
2021/09/15 01:28:17;;;;;;;;;;;;;;;23.15;100.00;98587.09;5083498;28;20293;-60
2021/09/15 01:30:43;;;;;;;;;;;;;;;23.03;100.00;98586.38;5100619;28;19920;-61
2021/09/15 01:33:09;;;;;;;;;;;;;;;23.07;100.00;98586.97;5103563;28;20304;-62
2021/09/15 01:35:34;;;;;;;;;;;;;;;22.88;100.00;98591.22;5107370;28;19919;-62
2021/09/15 01:37:59;;;;;;;;;;;;;;;22.91;100.00;98592.72;5088288;28;20319;-62
2021/09/15 01:40:25;;;;;;;;;;;;;;;22.91;100.00;98593.56;5099763;28;19916;-62
2021/09/15 01:42:50;;;;;;;;;;;;;;;23.05;100.00;98589.72;5099573;28;19924;-60
2021/09/15 01:45:16;;;;;;;;;;;;;;;23.08;100.00;98584.19;5099515;28;19920;-63
2021/09/15 01:47:41;;;;;;;;;;;;;;;23.11;100.00;98572.59;5098649;28;19924;-62
2021/09/15 01:50:07;;;;;;;;;;;;;;;22.69;100.00;98570.19;5081952;28;19926;-62
2021/09/15 01:52:32;;;;;;;;;;;;;;;22.59;100.00;98571.97;5099310;28;19919;-62
2021/09/15 01:54:58;;;;;;;;;;;;;;;22.87;100.00;98576.41;5078951;28;19959;-61
2021/09/15 01:57:23;;;;;;;;;;;;;;;22.62;100.00;98571.69;5097158;28;20000;-60
2021/09/15 01:59:48;;;;;;;;;;;;;;;22.59;100.00;98566.72;5098769;28;20288;-62
2021/09/15 02:02:14;;;;;;;;;;;;;;;22.48;100.00;98570.28;5098168;28;19955;-61
2021/09/15 02:04:39;;;;;;;;;;;;;;;22.70;100.00;98570.06;5099130;28;19977;-61
2021/09/15 02:07:06;;;;;;;;;;;;;;;22.73;100.00;98569.75;5099373;28;19916;-62
2021/09/15 02:09:31;;;;;;;;;;;;;;;22.82;100.00;98576.00;5066524;28;19922;-62
2021/09/15 02:11:56;;;;;;;;;;;;;;;22.86;100.00;98572.13;5109820;28;19937;-62
2021/09/15 02:14:22;;;;;;;;;;;;;;;22.91;100.00;98572.53;5086363;28;20436;-62
2021/09/15 02:16:47;;;;;;;;;;;;;;;23.12;100.00;98574.22;5098968;28;19973;-62
2021/09/15 02:19:13;;;;;;;;;;;;;;;23.30;100.00;98572.56;5108327;28;19911;-62
2021/09/15 02:21:38;;;;;;;;;;;;;;;23.27;100.00;98567.59;5099432;28;19920;-61
2021/09/15 02:24:04;;;;;;;;;;;;;;;23.01;100.00;98563.88;5099179;28;20266;-62
2021/09/15 02:26:31;;;;;;;;;;;;;;;23.31;100.00;98563.72;5099960;28;20014;-61
2021/09/15 02:28:57;;;;;;;;;;;;;;;22.75;100.00;98561.75;5101505;28;20353;-60
2021/09/15 02:31:22;;;;;;;;;;;;;;;22.93;100.00;98554.84;5100991;28;19918;-61
2021/09/15 02:33:47;;;;;;;;;;;;;;;23.43;100.00;98558.31;5098767;28;19927;-62
2021/09/15 02:36:13;;;;;;;;;;;;;;;23.11;100.00;98556.81;5100488;28;19961;-62
2021/09/15 02:38:38;;;;;;;;;;;;;;;23.26;100.00;98552.78;5102360;28;19941;-62
2021/09/15 02:41:04;;;;;;;;;;;;;;;23.13;100.00;98549.63;5110390;28;19917;-62
2021/09/15 02:43:29;;;;;;;;;;;;;;;22.79;100.00;98542.16;5084127;28;19969;-61
2021/09/15 02:45:54;;;;;;;;;;;;;;;22.82;100.00;98547.13;5106286;28;20006;-61
2021/09/15 02:48:20;;;;;;;;;;;;;;;22.84;100.00;98542.56;5101659;28;19924;-61
2021/09/15 02:50:45;;;;;;;;;;;;;;;22.85;100.00;98546.81;5086570;28;20453;-62
2021/09/15 02:53:10;;;;;;;;;;;;;;;22.64;100.00;98544.34;5109648;28;20002;-62
2021/09/15 02:55:36;;;;;;;;;;;;;;;22.75;100.00;98540.75;5102768;28;19920;-64
2021/09/15 02:58:03;;;;;;;;;;;;;;;22.92;100.00;98532.22;5106518;28;19985;-62
2021/09/15 03:00:29;;;;;;;;;;;;;;;22.57;100.00;98526.66;5097597;28;20612;-63
2021/09/15 03:02:54;;;;;;;;;;;;;;;22.82;100.00;98526.13;5099614;28;19955;-61
2021/09/15 03:05:19;;;;;;;;;;;;;;;22.71;100.00;98524.44;5100973;28;20011;-62
2021/09/15 03:07:45;;;;;;;;;;;;;;;22.45;100.00;98528.59;5103243;28;19916;-62
2021/09/15 03:10:10;;;;;;;;;;;;;;;22.65;100.00;98530.25;5094318;28;20286;-62
2021/09/15 03:12:35;;;;;;;;;;;;;;;22.96;100.00;98522.22;5081449;28;19915;-62
2021/09/15 03:15:01;;;;;;;;;;;;;;;22.75;100.00;98528.47;5100251;28;19935;-62
2021/09/15 03:17:26;;;;;;;;;;;;;;;22.67;100.00;98530.97;5100414;28;19965;-62
2021/09/15 03:19:51;;;;;;;;;;;;;;;22.57;100.00;98529.28;5100981;28;19915;-62
2021/09/15 03:22:17;;;;;;;;;;;;;;;22.89;100.00;98526.38;5100712;28;19927;-61
2021/09/15 03:24:42;;;;;;;;;;;;;;;22.65;100.00;98526.78;5099802;28;20324;-63
2021/09/15 03:27:08;;;;;;;;;;;;;;;23.00;100.00;98520.19;5103705;28;19928;-61
2021/09/15 03:29:33;;;;;;;;;;;;;;;22.78;100.00;98524.72;5103056;28;19927;-62
2021/09/15 03:31:59;;;;;;;;;;;;;;;23.13;100.00;98524.19;5101515;28;19958;-62
2021/09/15 03:34:24;;;;;;;;;;;;;;;23.44;100.00;98515.28;5098995;28;20291;-62
2021/09/15 03:36:50;;;;;;;;;;;;;;;23.00;100.00;98514.94;5099076;28;19916;-63
2021/09/15 03:39:15;;;;;;;;;;;;;;;22.79;100.00;98515.91;5099324;28;20029;-61
2021/09/15 03:41:40;;;;;;;;;;;;;;;22.76;100.00;98516.16;5097946;28;19912;-61
2021/09/15 03:44:06;;;;;;;;;;;;;;;23.18;100.00;98515.88;5102041;28;19938;-62
2021/09/15 03:46:31;;;;;;;;;;;;;;;22.80;100.00;98504.41;5101603;28;20438;-61
2021/09/15 03:48:56;;;;;;;;;;;;;;;23.08;100.00;98504.56;5099153;28;20007;-62
2021/09/15 03:51:22;;;;;;;;;;;;;;;22.97;100.00;98513.41;5100032;28;19962;-62
2021/09/15 03:53:47;;;;;;;;;;;;;;;22.90;100.00;98513.13;5097201;28;19923;-62
2021/09/15 03:56:12;;;;;;;;;;;;;;;22.68;100.00;98508.16;5106047;28;19916;-62
2021/09/15 03:58:38;;;;;;;;;;;;;;;22.90;100.00;98507.88;5102319;28;20002;-61
2021/09/15 04:01:03;;;;;;;;;;;;;;;22.57;100.00;98506.50;5099424;28;19923;-61
2021/09/15 04:03:28;;;;;;;;;;;;;;;22.52;100.00;98509.53;5098301;28;20284;-62
2021/09/15 04:05:54;;;;;;;;;;;;;;;22.60;100.00;98508.00;5098658;28;19931;-61
2021/09/15 04:08:19;;;;;;;;;;;;;;;22.95;100.00;98507.47;5097516;28;19926;-61
2021/09/15 04:10:44;;;;;;;;;;;;;;;22.45;100.00;98513.66;5077987;28;19951;-65
2021/09/15 04:13:09;;;;;;;;;;;;;;;22.49;100.00;98512.44;5098080;28;19916;-63
2021/09/15 04:15:35;;;;;;;;;;;;;;;22.46;100.00;98512.69;5098335;28;19920;-62
2021/09/15 04:18:00;;;;;;;;;;;;;;;22.66;100.00;98520.59;5081153;28;19950;-63
2021/09/15 04:20:26;;;;;;;;;;;;;;;22.76;100.00;98516.16;5098746;28;20004;-63
2021/09/15 04:22:51;;;;;;;;;;;;;;;22.65;100.00;98511.03;5106559;28;19937;-62
2021/09/15 04:33:28;;;;;;;;;;;;;;;22.46;100.00;98510.06;5095987;28;19966;-62
2021/09/15 04:35:54;;;;;;;;;;;;;;;22.38;100.00;98509.09;5094130;28;19959;-64
2021/09/15 04:38:19;;;;;;;;;;;;;;;22.68;100.00;98511.59;5089646;28;19983;-63
2021/09/15 04:40:44;;;;;;;;;;;;;;;22.38;100.00;98512.56;5092111;28;19916;-62
2021/09/15 04:43:10;;;;;;;;;;;;;;;22.28;100.00;98511.69;5087756;28;19940;-62
2021/09/15 04:46:11;;;;;;;;;;;;;;;22.58;100.00;98509.94;5088912;28;19915;-62
2021/09/15 04:48:38;;;;;;;;;;;;;;;22.50;100.00;98506.22;5107297;28;19912;-61
2021/09/15 04:51:04;;;;;;;;;;;;;;;22.65;100.00;98513.66;5105530;28;19998;-62
2021/09/15 04:53:29;;;;;;;;;;;;;;;22.37;100.00;98508.25;5087139;28;20006;-62
2021/09/15 04:55:56;;;;;;;;;;;;;;;21.93;100.00;98505.09;5103621;27;19959;-62
2021/09/15 04:58:21;;;;;;;;;;;;;;;22.47;100.00;98503.88;5101646;28;19967;-65
2021/09/15 05:00:47;;;;;;;;;;;;;;;22.50;100.00;98506.22;5102715;28;19919;-64
2021/09/15 05:03:12;;;;;;;;;;;;;;;22.31;100.00;98511.44;5110697;28;20010;-62
2021/09/15 05:05:37;;;;;;;;;;;;;;;22.27;100.00;98510.06;5108116;28;20411;-61
2021/09/15 05:08:03;;;;;;;;;;;;;;;22.42;100.00;98511.31;5101092;28;19957;-61
2021/09/15 05:10:28;;;;;;;;;;;;;;;22.30;100.00;98505.34;5101224;28;20328;-61
2021/09/15 05:12:54;;;;;;;;;;;;;;;22.52;100.00;98509.53;5102522;27;19965;-60
2021/09/15 05:15:19;;;;;;;;;;;;;;;22.43;100.00;98505.09;5101510;28;20327;-61
2021/09/15 05:17:45;;;;;;;;;;;;;;;22.52;100.00;98499.03;5101604;28;19967;-62
2021/09/15 05:20:10;;;;;;;;;;;;;;;22.52;100.00;98493.78;5099753;28;19962;-61
2021/09/15 05:22:36;;;;;;;;;;;;;;;22.60;100.00;98489.63;5105476;28;19960;-61
2021/09/15 05:25:01;;;;;;;;;;;;;;;22.32;100.00;98497.34;5105866;28;19916;-64
2021/09/15 05:27:26;;;;;;;;;;;;;;;22.35;100.00;98489.19;5106743;28;19912;-62
2021/09/15 05:29:52;;;;;;;;;;;;;;;22.45;100.00;98482.19;5108129;28;19918;-62
2021/09/15 05:32:17;;;;;;;;;;;;;;;22.27;100.00;98478.56;5103795;28;19951;-62
2021/09/15 05:34:42;;;;;;;;;;;;;;;22.07;100.00;98478.50;5103539;28;20339;-63
2021/09/15 05:37:08;;;;;;;;;;;;;;;22.20;100.00;98486.13;5103322;28;19972;-62
2021/09/15 05:39:33;;;;;;;;;;;;;;;22.13;100.00;98477.13;5080722;28;20355;-60
2021/09/15 05:41:58;;;;;;;;;;;;;;;22.18;100.00;98479.34;5102703;28;19915;-65
2021/09/15 05:44:24;;;;;;;;;;;;;;;21.79;100.00;98479.25;5103745;28;19922;-62
2021/09/15 05:46:49;;;;;;;;;;;;;;;22.01;100.00;98471.19;5104676;28;19911;-62
2021/09/15 05:49:14;;;;;;;;;;;;;;;22.18;100.00;98474.13;5098404;28;19923;-61
2021/09/15 05:51:40;;;;;;;;;;;;;;;22.00;100.00;98477.38;5083697;28;20426;-62
2021/09/15 05:54:08;;;;;;;;;;;;;;;22.20;100.00;98487.91;5081800;28;19916;-60
2021/09/15 05:56:33;;;;;;;;;;;;;;;21.91;100.00;98484.25;5102348;28;19915;-62
2021/09/15 05:58:58;;;;;;;;;;;;;;;21.96;100.00;98490.88;5102590;28;19927;-62
2021/09/15 06:01:24;;;;;;;;;;;;;;;21.87;100.00;98484.66;5102223;28;19945;-61
2021/09/15 06:03:49;;;;;;;;;;;;;;;21.87;100.00;98482.03;5109401;28;20290;-62
2021/09/15 06:06:14;;;;;;;;;;;;;;;22.11;100.00;98490.38;5086055;28;19989;-62
2021/09/15 06:08:40;;;;;;;;;;;;;;;22.04;100.00;98483.19;5102607;28;20381;-61
2021/09/15 06:11:05;;;;;;;;;;;;;;;21.98;100.00;98484.53;5102033;28;20562;-62
2021/09/15 06:13:31;;;;;;;;;;;;;;;21.96;100.00;98491.72;5102492;28;19911;-61
2021/09/15 06:15:56;;;;;;;;;;;;;;;22.10;100.00;98488.72;5107396;28;19912;-62
2021/09/15 06:18:21;;;;;;;;;;;;;;;21.76;100.00;98482.13;5095836;28;20362;-62
2021/09/15 06:20:46;;;;;;;;;;;;;;;21.91;100.00;98483.44;5100569;28;19912;-62
2021/09/15 06:23:12;;;;;;;;;;;;;;;22.06;100.00;98484.72;5102240;28;20533;-62
2021/09/15 06:25:41;;;;;;;;;;;;;;;22.16;100.00;98476.03;5083371;28;19920;-62
2021/09/15 06:28:06;;;;;;;;;;;;;;;21.91;100.00;98483.44;5084258;28;20297;-65
2021/09/15 06:30:31;;;;;;;;;;;;;;;22.76;100.00;98482.03;5101698;28;19922;-64
2021/09/15 06:32:57;;;;;;;;;;;;;;;22.50;100.00;98473.91;5100754;28;19912;-62
2021/09/15 06:35:22;;;;;;;;;;;;;;;22.28;100.00;98475.81;5096655;28;20530;-65
2021/09/15 06:37:47;;;;;;;;;;;;;;;22.37;100.00;98474.16;5083509;28;19923;-63
2021/09/15 06:40:13;;;;;;;;;;;;;;;22.50;100.00;98469.47;5104532;28;20362;-62
2021/09/15 06:42:38;;;;;;;;;;;;;;;22.53;100.00;98471.84;5100080;28;19916;-62
2021/09/15 06:45:04;;;;;;;;;;;;;;;22.47;100.00;98467.13;5103701;28;19916;-65
2021/09/15 06:47:29;;;;;;;;;;;;;;;22.29;100.00;98463.53;5105254;28;20002;-62
2021/09/15 06:49:55;;;;;;;;;;;;;;;22.06;100.00;98466.34;5112281;28;20006;-62
2021/09/15 06:52:21;;;;;;;;;;;;;;;22.17;100.00;98461.94;5100094;28;19912;-62
2021/09/15 06:54:49;;;;;;;;;;;;;;;22.24;100.00;98463.13;5084972;28;20387;-62
2021/09/15 06:57:14;;;;;;;;;;;;;;;22.31;100.00;98459.81;5104383;28;19916;-62
2021/09/15 06:59:40;;;;;;;;;;;;;;;22.02;100.00;98464.13;5100522;27;19974;-62
2021/09/15 07:02:05;;;;;;;;;;;;;;;22.06;100.00;98466.34;5102294;28;19915;-62
2021/09/15 07:04:31;;;;;;;;;;;;;;;22.30;100.00;98462.56;5101135;28;19916;-62
2021/09/15 07:06:57;;;;;;;;;;;;;;;21.93;100.00;98460.53;5097989;28;19912;-62
2021/09/15 07:09:22;;;;;;;;;;;;;;;21.93;100.00;98477.09;5106633;28;20414;-61
2021/09/15 07:11:47;;;;;;;;;;;;;;;21.91;100.00;98467.69;5102424;28;19916;-61
2021/09/15 07:14:13;;;;;;;;;;;;;;;22.24;100.00;98458.69;5109901;28;19912;-62
2021/09/15 07:16:38;;;;;;;;;;;;;;;22.10;100.00;98459.88;5106958;28;19963;-62
2021/09/15 07:19:04;;;;;;;;;;;;;;;22.09;100.00;98455.59;5099867;28;19947;-62
2021/09/15 07:21:29;;;;;;;;;;;;;;;22.05;100.00;98462.06;5110264;28;20318;-62
2021/09/15 07:23:55;;;;;;;;;;;;;;;22.18;100.00;98458.38;5109931;28;19912;-62
2021/09/15 07:26:20;;;;;;;;;;;;;;;22.28;100.00;98459.22;5092584;28;19912;-62
2021/09/15 07:28:46;;;;;;;;;;;;;;;22.08;100.00;98458.38;5105755;28;20300;-61
2021/09/15 07:31:11;;;;;;;;;;;;;;;21.93;100.00;98456.09;5103550;28;19923;-63
2021/09/15 07:33:36;;;;;;;;;;;;;;;22.13;100.00;98462.22;5098993;28;19919;-61
2021/09/15 07:36:02;;;;;;;;;;;;;;;22.43;100.00;98462.28;5105181;28;20328;-62
2021/09/15 07:38:28;;;;;;;;;;;;;;;22.08;100.00;98464.44;5082095;28;19924;-62
2021/09/15 07:40:53;;;;;;;;;;;;;;;22.02;100.00;98469.38;5078130;28;19975;-62
2021/09/15 07:43:19;;;;;;;;;;;;;;;22.21;100.00;98473.81;5099635;28;19915;-63
2021/09/15 07:45:44;;;;;;;;;;;;;;;22.14;100.00;98469.13;5096756;28;20384;-62
2021/09/15 07:48:10;;;;;;;;;;;;;;;22.32;100.00;98460.63;5097114;28;19928;-63
2021/09/15 07:50:35;;;;;;;;;;;;;;;22.24;100.00;98457.88;5097056;28;19957;-63
2021/09/15 07:53:00;;;;;;;;;;;;;;;22.04;100.00;98460.41;5096385;28;19998;-64
2021/09/15 07:55:26;;;;;;;;;;;;;;;22.30;100.00;98467.78;5102841;28;19912;-62
2021/09/15 07:57:53;;;;;;;;;;;;;;;22.47;100.00;98468.94;5101653;28;19916;-62
2021/09/15 08:00:18;;;;;;;;;;;;;;;22.28;100.00;98467.09;5089296;28;19920;-62
2021/09/15 08:02:44;;;;;;;;;;;;;;;22.15;100.00;98469.97;5104631;28;20365;-62
2021/09/15 08:05:09;;;;;;;;;;;;;;;22.31;100.00;98458.97;5099400;28;20498;-63
2021/09/15 08:07:34;;;;;;;;;;;;;;;22.35;100.00;98470.84;5102011;28;19972;-62
2021/09/15 08:10:00;;;;;;;;;;;;;;;22.23;100.00;98469.31;5104403;28;20015;-62
2021/09/15 08:12:25;;;;;;;;;;;;;;;22.81;100.00;98477.22;5099594;28;19913;-62
2021/09/15 08:14:50;;;;;;;;;;;;;;;22.69;100.00;98473.91;5098813;28;19923;-62
2021/09/15 08:17:16;;;;;;;;;;;;;;;22.51;100.00;98475.53;5100590;28;19923;-61
2021/09/15 08:19:41;;;;;;;;;;;;;;;22.67;100.00;98467.13;5099586;28;19916;-62
2021/09/15 08:22:07;;;;;;;;;;;;;;;22.79;100.00;98476.53;5100977;28;19922;-62
2021/09/15 08:24:32;;;;;;;;;;;;;;;22.29;100.00;98471.41;5100226;28;19922;-62
2021/09/15 08:26:57;;;;;;;;;;;;;;;22.65;100.00;98477.78;5094804;28;19939;-62
2021/09/15 08:29:23;;;;;;;;;;;;;;;22.79;100.00;98476.53;5096884;28;20354;-62
2021/09/15 08:31:49;;;;;;;;;;;;;;;22.80;100.00;98470.28;5100401;28;19954;-62
2021/09/15 08:34:14;;;;;;;;;;;;;;;22.39;100.00;98466.16;5081521;28;19915;-62
2021/09/15 08:36:39;;;;;;;;;;;;;;;22.66;100.00;98461.03;5099913;28;20360;-60
2021/09/15 08:39:05;;;;;;;;;;;;;;;22.88;100.00;98472.22;5099492;28;19924;-61
2021/09/15 08:41:30;;;;;;;;;;;;;;;23.03;100.00;98475.25;5100220;28;19915;-62
2021/09/15 08:43:56;;;;;;;;;;;;;;;23.63;100.00;98474.94;5101319;28;20339;-62
2021/09/15 08:46:21;;;;;;;;;;;;;;;23.59;100.00;98477.03;5099280;28;19927;-62
2021/09/15 08:48:47;;;;;;;;;;;;;;;23.56;100.00;98475.53;5099009;28;19998;-61
2021/09/15 08:51:16;;;;;;;;;;;;;;;23.27;100.00;98480.06;5099579;28;19919;-62
2021/09/15 08:53:42;;;;;;;;;;;;;;;23.78;100.00;98476.97;5094236;28;20017;-63
2021/09/15 08:56:08;;;;;;;;;;;;;;;23.70;100.00;98490.00;5097772;28;19918;-62
2021/09/15 08:58:33;;;;;;;;;;;;;;;23.74;100.00;98490.53;5098683;28;19916;-62
2021/09/15 09:01:08;;;;;;;;;;;;;;;24.00;100.00;98485.47;5097593;28;20255;-62
2021/09/15 09:03:35;;;;;;;;;;;;;;;23.75;100.00;98487.78;5078335;28;19912;-60
2021/09/15 09:06:10;;;;;;;;;;;;;;;23.83;100.00;98479.16;5102136;28;20030;-62
2021/09/15 09:08:39;;;;;;;;;;;;;;;23.82;100.00;98487.22;5101904;28;20012;-63
2021/09/15 09:11:05;;;;;;;;;;;;;;;24.42;100.00;98482.28;5104789;28;19942;-62
2021/09/15 09:13:32;;;;;;;;;;;;;;;23.77;100.00;98475.34;5110284;28;20376;-62
2021/09/15 09:15:57;;;;;;;;;;;;;;;23.48;100.00;98493.00;5104721;28;19917;-61
2021/09/15 09:18:23;;;;;;;;;;;;;;;24.06;100.00;98479.59;5102034;28;20058;-62
2021/09/15 09:20:48;;;;;;;;;;;;;;;23.74;100.00;98478.25;5102756;28;20028;-63
2021/09/15 09:23:14;;;;;;;;;;;;;;;23.62;100.00;98482.00;5085869;28;19916;-62
2021/09/15 09:25:41;;;;;;;;;;;;;;;23.62;100.00;98479.38;5112391;28;19973;-62
2021/09/15 09:28:43;;;;;;;;;;;;;;;24.10;100.00;98473.06;5102085;28;19912;-62
2021/09/15 09:31:10;;;;;;;;;;;;;;;23.92;100.00;98472.19;5026427;28;19940;-62
2021/09/15 09:33:36;;;;;;;;;;;;;;;23.87;100.00;98474.44;5075699;28;19935;-63
2021/09/15 09:36:08;;;;;;;;;;;;;;;24.08;100.00;98471.56;5101229;28;19912;-62
2021/09/15 09:38:43;;;;;;;;;;;;;;;24.28;100.00;98480.16;5086449;28;19916;-61
2021/09/15 09:41:15;;;;;;;;;;;;;;;24.36;100.00;98482.88;5113603;28;19915;-62
2021/09/15 09:43:51;;;;;;;;;;;;;;;24.53;100.00;98476.81;5099127;28;19916;-63
2021/09/15 09:46:19;;;;;;;;;;;;;;;24.30;100.00;98476.41;5100747;28;20034;-62
2021/09/15 09:48:48;;;;;;;;;;;;;;;24.38;100.00;98484.38;5100747;28;19915;-63
2021/09/15 09:51:35;;;;;;;;;;;;;;;24.39;100.00;98482.56;5103960;28;20029;-62
2021/09/15 09:54:20;;;;;;;;;;;;;;;24.11;100.00;98487.88;5105756;28;20073;-61
2021/09/15 09:56:46;;;;;;;;;;;;;;;23.96;100.00;98489.34;5102096;28;20268;-61
2021/09/15 09:59:13;;;;;;;;;;;;;;;24.52;100.00;98480.44;5112246;28;19958;-62
2021/09/15 10:01:39;;;;;;;;;;;;;;;24.47;100.00;98477.41;5108428;28;20005;-62
2021/09/15 10:04:04;;;;;;;;;;;;;;;24.47;100.00;98485.31;5086268;28;19941;-63
2021/09/15 10:06:30;;;;;;;;;;;;;;;24.52;100.00;98480.44;5098619;28;19919;-62
2021/09/15 10:08:55;;;;;;;;;;;;;;;24.75;100.00;98479.97;5087632;28;20016;-62
2021/09/15 10:11:21;;;;;;;;;;;;;;;24.26;100.00;98477.66;5102772;28;20377;-62
2021/09/15 10:13:46;;;;;;;;;;;;;;;24.93;100.00;98472.03;5100321;28;19923;-62
2021/09/15 10:16:12;;;;;;;;;;;;;;;24.66;100.00;98480.88;5101369;28;19916;-62
2021/09/15 10:18:37;;;;;;;;;;;;;;;24.56;100.00;98470.41;5082623;28;19955;-62
2021/09/15 10:21:04;;;;;;;;;;;;;;;24.80;100.00;98464.53;5100660;28;19972;-63
2021/09/15 10:23:37;;;;;;;;;;;;;;;25.20;100.00;98458.75;5101598;28;19955;-64
2021/09/15 10:26:21;;;;;;;;;;;;;;;25.22;100.00;98455.94;5099819;28;19991;-63
2021/09/15 10:29:05;;;;;;;;;;;;;;;25.37;100.00;98454.41;5102042;28;19934;-62
2021/09/15 10:32:02;;;;;;;;;;;;;;;24.88;100.00;98453.22;5104426;28;19958;-62
2021/09/15 10:34:40;;;;;;;;;;;;;;;25.17;100.00;98448.47;5073455;28;19919;-63
2021/09/15 10:37:11;;;;;;;;;;;;;;;25.29;100.00;98449.06;5098452;28;19922;-63
2021/09/15 10:39:55;;;;;;;;;;;;;;;25.36;100.00;98447.50;5100519;28;19955;-63
2021/09/15 10:42:39;;;;;;;;;;;;;;;25.45;100.00;98446.53;5103744;28;19980;-63
2021/09/15 10:45:12;;;;;;;;;;;;;;;25.51;100.00;98449.53;5103729;28;19912;-61
2021/09/15 10:47:58;;;;;;;;;;;;;;;25.43;100.00;98445.88;5100804;28;19995;-61
2021/09/15 10:50:30;;;;;;;;;;;;;;;25.30;100.00;98450.75;5099598;28;20361;-61
2021/09/15 10:53:13;;;;;;;;;;;;;;;25.31;100.00;98443.66;5098970;28;20274;-63
2021/09/15 10:55:39;;;;;;;;;;;;;;;25.53;100.00;98439.66;5100293;28;20423;-63
2021/09/15 10:58:10;;;;;;;;;;;;;;;25.16;100.00;98435.47;5100241;28;19915;-62
2021/09/15 11:00:45;;;;;;;;;;;;;;;25.30;100.00;98431.47;5103165;28;19911;-61
2021/09/15 11:03:28;;;;;;;;;;;;;;;25.08;100.00;98420.44;5085495;28;19916;-62
2021/09/15 11:05:54;;;;;;;;;;;;;;;25.53;100.00;98421.19;5103223;28;20028;-62
2021/09/15 11:08:20;;;;;;;;;;;;;;;25.67;100.00;98420.59;5108675;28;19970;-63
2021/09/15 11:10:46;;;;;;;;;;;;;;;25.81;100.00;98421.78;5104490;28;19981;-63
2021/09/15 11:13:31;;;;;;;;;;;;;;;26.06;100.00;98427.97;5081412;28;19916;-62
2021/09/15 11:15:57;;;;;;;;;;;;;;;26.06;100.00;98427.97;5102452;28;20365;-62
2021/09/15 11:18:24;;;;;;;;;;;;;;;24.57;100.00;98430.78;5090686;28;19922;-62
2021/09/15 11:20:55;;;;;;;;;;;;;;;25.04;100.00;98416.44;5073139;28;19968;-62
2021/09/15 11:23:21;;;;;;;;;;;;;;;25.46;100.00;98415.72;5093341;28;19987;-62
2021/09/15 11:25:47;;;;;;;;;;;;;;;25.20;100.00;98416.59;5074327;28;19919;-61
2021/09/15 11:28:13;;;;;;;;;;;;;;;26.03;100.00;98420.38;5063330;28;20374;-61
2021/09/15 11:30:56;;;;;;;;;;;;;;;26.22;100.00;98414.78;5081033;28;19919;-61
2021/09/15 11:33:25;;;;;;;;;;;;;;;26.14;100.00;98419.22;5082299;28;19912;-61
2021/09/15 11:35:54;;;;;;;;;;;;;;;26.08;100.00;98421.53;5086798;28;19912;-61
2021/09/15 11:38:22;;;;;;;;;;;;;;;25.92;100.00;98432.06;5098332;28;20904;-62
2021/09/15 11:40:48;;;;;;;;;;;;;;;26.51;100.00;98429.34;5097311;28;19923;-63
2021/09/15 11:43:14;;;;;;;;;;;;;;;26.04;100.00;98432.59;5099698;28;19915;-62
2021/09/15 11:45:40;;;;;;;;;;;;;;;25.78;100.00;98430.84;5099957;28;19915;-62
2021/09/15 11:48:06;;;;;;;;;;;;;;;25.85;100.00;98431.84;5099822;28;20357;-61
2021/09/15 11:50:32;;;;;;;;;;;;;;;25.33;100.00;98431.97;5099260;28;19923;-64
2021/09/15 11:53:05;;;;;;;;;;;;;;;26.14;100.00;98429.78;5099665;28;19926;-63
2021/09/15 11:55:31;;;;;;;;;;;;;;;25.87;100.00;98432.53;5099581;28;19911;-63
2021/09/15 11:58:02;;;;;;;;;;;;;;;25.90;100.00;98435.84;5097880;28;19926;-62
2021/09/15 12:00:29;;;;;;;;;;;;;;;25.95;100.00;98436.19;5100072;28;20469;-63
2021/09/15 12:03:00;;;;;;;;;;;;;;;25.77;100.00;98429.19;5100440;28;19919;-63
2021/09/15 12:05:26;;;;;;;;;;;;;;;25.49;100.00;98433.84;5099423;28;19931;-63
2021/09/15 12:07:52;;;;;;;;;;;;;;;25.32;100.00;98440.88;5081150;28;19919;-62
2021/09/15 12:10:19;;;;;;;;;;;;;;;25.26;100.00;98441.50;5100298;28;20220;-63
2021/09/15 12:12:44;;;;;;;;;;;;;;;25.10;100.00;98447.44;5103634;28;19912;-60
2021/09/15 12:15:10;;;;;;;;;;;;;;;24.65;100.00;98452.88;5088107;28;19955;-62
2021/09/15 12:17:36;;;;;;;;;;;;;;;24.57;100.00;98446.59;5099567;28;20701;-62
2021/09/15 12:20:02;;;;;;;;;;;;;;;24.85;100.00;98451.72;5100121;28;20007;-62
2021/09/15 12:22:29;;;;;;;;;;;;;;;24.98;100.00;98444.25;5098565;28;20379;-62
2021/09/15 12:24:57;;;;;;;;;;;;;;;24.28;100.00;98449.41;5089934;28;19911;-62
2021/09/15 12:27:23;;;;;;;;;;;;;;;24.39;100.00;98453.63;5108738;28;19911;-61
2021/09/15 12:29:56;;;;;;;;;;;;;;;23.63;100.00;98456.53;5098699;28;20359;-64
2021/09/15 12:32:26;;;;;;;;;;;;;;;24.17;100.00;98460.97;5081294;28;19915;-61
2021/09/15 12:34:51;;;;;;;;;;;;;;;23.23;100.00;98461.13;5080304;28;19919;-62
2021/09/15 12:37:20;;;;;;;;;;;;;;;23.82;100.00;98460.94;5104314;28;19969;-63
2021/09/15 12:39:46;;;;;;;;;;;;;;;23.03;100.00;98470.84;5081510;28;20377;-64
2021/09/15 12:42:19;;;;;;;;;;;;;;;24.18;100.00;98462.63;5104156;28;19969;-62